Time;durP1;ratioP1;P1;durP2;ratioP2;P2;SDS_P1;SDS_P2;PMS_P1;PMS_P2;Temp;Humidity;BMP_temperature;BMP_pressure;BME280_temperature;BME280_humidity;BME280_pressure;Samples;Min_cycle;Max_cycle;Signal;HPM_P1;HPM_P2
2022/08/31 00:04:06;;;;;;;15.23;13.63;;;563.80;2432.00;;;;;;5051766;28;20036;-80
2022/08/31 00:06:34;;;;;;;16.10;14.45;;;563.70;2432.00;;;;;;5039425;28;20033;-80
2022/08/31 00:09:01;;;;;;;17.35;15.10;;;563.70;2432.00;;;;;;5064319;28;20509;-80
2022/08/31 00:11:29;;;;;;;15.70;14.10;;;563.70;2432.00;;;;;;5036516;28;20053;-81
2022/08/31 00:14:00;;;;;;;15.77;14.18;;;563.70;2432.00;;;;;;5033569;28;20463;-80
2022/08/31 00:16:28;;;;;;;16.20;14.38;;;563.70;2432.00;;;;;;5065372;28;20592;-80
2022/08/31 00:18:54;;;;;;;17.38;14.73;;;563.60;2432.00;;;;;;5064939;28;20115;-81
2022/08/31 00:21:24;;;;;;;16.98;14.70;;;563.60;2432.00;;;;;;5032912;28;20028;-80
2022/08/31 00:23:51;;;;;;;17.42;14.95;;;563.50;2432.00;;;;;;5031694;28;20108;-81
2022/08/31 00:26:18;;;;;;;16.70;15.05;;;563.60;2432.00;;;;;;5034091;28;20481;-81
2022/08/31 00:28:44;;;;;;;17.73;14.35;;;563.60;2432.00;;;;;;5030837;28;20033;-81
2022/08/31 00:31:10;;;;;;;20.25;14.80;;;563.60;2432.00;;;;;;5063223;28;20112;-81
2022/08/31 00:33:36;;;;;;;18.48;14.55;;;563.60;2432.00;;;;;;5040054;28;20113;-81
2022/08/31 00:36:04;;;;;;;18.05;15.18;;;563.60;2432.00;;;;;;5033127;28;20076;-81
2022/08/31 00:38:30;;;;;;;17.27;14.25;;;563.60;2432.00;;;;;;5031270;28;20788;-81
2022/08/31 00:40:56;;;;;;;15.55;13.95;;;563.60;2432.00;;;;;;5030888;28;20032;-80
2022/08/31 00:43:52;;;;;;;18.73;14.80;;;563.60;2432.00;;;;;;5065359;28;20030;-81
2022/08/31 00:46:25;;;;;;;18.92;16.27;;;563.30;2432.00;;;;;;5034789;28;20032;-80
2022/08/31 00:49:19;;;;;;;17.30;14.48;;;538.40;2406.40;;;;;;5036181;28;20032;-81
2022/08/31 00:51:52;;;;;;;17.90;15.30;;;563.20;2432.00;;;;;;5028402;28;20125;-81
2022/08/31 00:54:21;;;;;;;16.45;14.65;;;563.30;2432.00;;;;;;5032821;28;20121;-81
2022/08/31 00:56:48;;;;;;;18.65;14.73;;;563.20;2432.00;;;;;;5035320;28;20021;-80
2022/08/31 00:59:16;;;;;;;18.05;14.57;;;563.20;2432.00;;;;;;5065632;28;20022;-80
2022/08/31 01:01:42;;;;;;;19.52;14.25;;;563.20;2432.00;;;;;;5030269;28;20037;-81
2022/08/31 01:04:08;;;;;;;15.70;14.13;;;563.30;2432.00;;;;;;5036749;28;20028;-80
2022/08/31 01:06:35;;;;;;;16.67;14.15;;;563.40;2432.00;;;;;;5072151;28;20055;-81
2022/08/31 01:09:03;;;;;;;16.90;14.43;;;563.30;2432.00;;;;;;5039085;28;20421;-80
2022/08/31 01:11:29;;;;;;;18.83;14.43;;;563.30;2432.00;;;;;;5037584;28;20053;-81
2022/08/31 01:13:55;;;;;;;16.60;13.85;;;538.50;2406.40;;;;;;5040275;28;20029;-82
2022/08/31 01:16:47;;;;;;;16.73;14.57;;;563.30;2432.00;;;;;;5033163;28;20044;-81
2022/08/31 01:19:38;;;;;;;16.73;14.50;;;563.30;2432.00;;;;;;5044291;28;20118;-80
2022/08/31 01:22:26;;;;;;;20.40;14.70;;;563.40;2432.00;;;;;;5027021;28;20399;-83
2022/08/31 01:24:54;;;;;;;18.10;14.95;;;538.50;2406.40;;;;;;5034732;28;20029;-80
2022/08/31 01:27:28;;;;;;;15.10;13.52;;;538.50;2406.40;;;;;;5068582;28;20749;-80
2022/08/31 01:29:58;;;;;;;15.68;13.93;;;538.50;2406.40;;;;;;5082279;28;20474;-79
2022/08/31 01:32:24;;;;;;;16.90;13.73;;;563.20;2432.00;;;;;;5053001;28;20041;-80
2022/08/31 01:34:49;;;;;;;19.77;14.48;;;538.50;2406.40;;;;;;5042907;28;20029;-81
2022/08/31 01:37:15;;;;;;;19.95;15.27;;;538.50;2406.40;;;;;;5066627;28;20045;-81
2022/08/31 01:39:41;;;;;;;18.27;15.15;;;538.50;2406.40;;;;;;5039988;28;20029;-80
2022/08/31 01:42:07;;;;;;;17.27;15.43;;;538.30;2406.40;;;;;;5037921;28;20056;-81
2022/08/31 01:44:33;;;;;;;18.10;16.25;;;538.30;2406.40;;;;;;5069112;28;20021;-81
2022/08/31 01:46:58;;;;;;;17.88;16.02;;;538.00;2406.40;;;;;;5032240;28;20106;-78
2022/08/31 01:49:24;;;;;;;18.92;14.75;;;537.90;2406.40;;;;;;5034300;28;20049;-80
2022/08/31 01:51:52;;;;;;;20.73;16.23;;;538.20;2406.40;;;;;;5036130;28;20029;-78
2022/08/31 01:54:19;;;;;;;17.55;15.38;;;537.90;2406.40;;;;;;5034205;28;20083;-81
2022/08/31 01:56:47;;;;;;;15.75;14.15;;;538.00;2406.40;;;;;;5067059;28;20037;-78
2022/08/31 01:59:15;;;;;;;17.30;15.30;;;538.30;2406.40;;;;;;5043152;28;20021;-78
2022/08/31 02:01:44;;;;;;;18.40;15.02;;;538.30;2406.40;;;;;;5042988;28;20033;-79
2022/08/31 02:04:12;;;;;;;19.50;16.40;;;538.00;2406.40;;;;;;5038238;28;20112;-79
2022/08/31 02:06:42;;;;;;;20.67;15.25;;;537.90;2406.40;;;;;;5038576;28;20031;-79
2022/08/31 02:09:08;;;;;;;19.67;16.08;;;538.20;2406.40;;;;;;5037438;28;20036;-79
2022/08/31 02:11:35;;;;;;;20.75;16.58;;;538.00;2406.40;;;;;;5036010;28;20123;-79
2022/08/31 02:14:01;;;;;;;17.10;15.30;;;538.20;2406.40;;;;;;5070559;28;20032;-79
2022/08/31 02:16:27;;;;;;;18.15;15.82;;;538.00;2406.40;;;;;;5034104;28;20029;-79
2022/08/31 02:18:53;;;;;;;18.42;14.55;;;538.20;2406.40;;;;;;5035078;28;20021;-79
2022/08/31 02:21:18;;;;;;;18.23;15.55;;;538.30;2406.40;;;;;;5035698;28;20032;-78
2022/08/31 02:23:44;;;;;;;17.55;15.00;;;538.30;2406.40;;;;;;5067287;28;20040;-79
2022/08/31 02:26:10;;;;;;;20.25;15.65;;;538.20;2406.40;;;;;;5069038;28;20113;-80
2022/08/31 02:28:37;;;;;;;17.45;15.15;;;538.10;2406.40;;;;;;5035602;28;20022;-78
2022/08/31 02:31:03;;;;;;;17.13;15.13;;;538.20;2406.40;;;;;;5037730;28;20025;-79
2022/08/31 02:33:28;;;;;;;18.58;14.82;;;538.20;2406.40;;;;;;5067040;28;20044;-79
2022/08/31 02:35:54;;;;;;;17.52;15.70;;;538.20;2406.40;;;;;;5066717;28;20465;-79
2022/08/31 02:38:21;;;;;;;18.77;16.52;;;538.20;2406.40;;;;;;5068051;28;20028;-80
2022/08/31 02:40:48;;;;;;;18.23;14.65;;;538.30;2406.40;;;;;;5070013;28;20491;-80
2022/08/31 02:43:14;;;;;;;18.50;14.68;;;538.50;2406.40;;;;;;5035923;28;20025;-79
2022/08/31 02:45:40;;;;;;;17.38;14.85;;;538.30;2406.40;;;;;;5036902;28;20043;-79
2022/08/31 02:48:08;;;;;;;17.25;15.63;;;538.20;2406.40;;;;;;5066454;28;20455;-79
2022/08/31 02:50:45;;;;;;;17.17;14.63;;;538.00;2406.40;;;;;;5036680;28;20036;-79
2022/08/31 02:53:13;;;;;;;17.63;14.00;;;538.00;2406.40;;;;;;5036229;28;20033;-80
2022/08/31 02:55:39;;;;;;;18.15;15.48;;;538.00;2406.40;;;;;;5036047;28;20037;-79
2022/08/31 02:58:05;;;;;;;15.27;13.70;;;538.10;2406.40;;;;;;5036479;28;20025;-79
2022/08/31 03:00:32;;;;;;;20.02;16.30;;;538.20;2406.40;;;;;;5035747;28;20032;-79
2022/08/31 03:02:58;;;;;;;23.20;15.65;;;538.20;2406.40;;;;;;5031997;28;20134;-79
2022/08/31 03:05:25;;;;;;;23.10;16.23;;;538.20;2406.40;;;;;;5065693;28;20025;-80
2022/08/31 03:07:51;;;;;;;17.20;15.38;;;538.20;2406.40;;;;;;5035792;28;20117;-79
2022/08/31 03:10:20;;;;;;;18.63;15.52;;;538.20;2406.40;;;;;;5033013;28;20108;-79
2022/08/31 03:12:47;;;;;;;19.25;15.55;;;538.20;2406.40;;;;;;5033975;28;20025;-79
2022/08/31 03:15:15;;;;;;;21.50;15.25;;;538.20;2406.40;;;;;;5069513;28;20116;-79
2022/08/31 03:17:41;;;;;;;21.25;16.48;;;538.20;2406.40;;;;;;5064387;28;20029;-79
2022/08/31 03:20:08;;;;;;;17.60;15.77;;;538.00;2406.40;;;;;;5032252;28;20072;-80
2022/08/31 03:22:34;;;;;;;17.90;15.32;;;537.70;2406.40;;;;;;5034993;28;20060;-79
2022/08/31 03:25:00;;;;;;;25.35;15.77;;;537.90;2406.40;;;;;;5034035;28;20053;-79
2022/08/31 03:27:29;;;;;;;19.30;14.95;;;537.60;2406.40;;;;;;5037102;28;20027;-79
2022/08/31 03:29:55;;;;;;;20.17;14.65;;;537.80;2406.40;;;;;;5033749;28;20022;-79
2022/08/31 03:32:21;;;;;;;20.05;16.92;;;537.90;2406.40;;;;;;5038984;28;20057;-79
2022/08/31 03:34:47;;;;;;;19.35;17.45;;;512.90;2380.80;;;;;;5033352;28;20064;-80
2022/08/31 03:37:13;;;;;;;22.75;17.90;;;512.60;2380.80;;;;;;5070365;28;20056;-80
2022/08/31 03:39:39;;;;;;;22.08;17.52;;;512.30;2380.80;;;;;;5032545;28;20040;-78
2022/08/31 03:42:08;;;;;;;19.77;16.13;;;512.40;2380.80;;;;;;5035613;28;20038;-79
2022/08/31 03:44:34;;;;;;;18.42;15.35;;;512.60;2380.80;;;;;;5033878;28;20030;-79
2022/08/31 03:46:59;;;;;;;19.50;15.57;;;512.80;2380.80;;;;;;5033395;28;20037;-79
2022/08/31 03:49:25;;;;;;;17.33;15.60;;;512.90;2380.80;;;;;;5037503;28;20629;-79
2022/08/31 03:51:52;;;;;;;21.27;14.85;;;512.70;2380.80;;;;;;5063747;28;20037;-79
2022/08/31 03:54:18;;;;;;;22.73;16.80;;;512.40;2380.80;;;;;;5034886;28;20080;-79
2022/08/31 03:56:45;;;;;;;20.58;16.52;;;512.20;2380.80;;;;;;5032791;28;20029;-79
2022/08/31 03:59:11;;;;;;;23.65;16.98;;;512.20;2380.80;;;;;;5034446;28;20107;-79
2022/08/31 04:01:38;;;;;;;20.80;17.08;;;512.20;2380.80;;;;;;5065289;28;20537;-79
2022/08/31 04:04:04;;;;;;;19.17;16.65;;;512.20;2380.80;;;;;;5034318;28;20159;-79
2022/08/31 04:06:30;;;;;;;20.65;17.80;;;512.30;2380.80;;;;;;5063845;28;20120;-78
2022/08/31 04:08:56;;;;;;;22.58;17.80;;;512.30;2380.80;;;;;;5062789;28;20062;-79
2022/08/31 04:11:22;;;;;;;30.52;19.45;;;512.60;2380.80;;;;;;5034184;28;20025;-76
2022/08/31 04:13:49;;;;;;;26.27;19.60;;;512.40;2380.80;;;;;;5044044;28;20120;-78
2022/08/31 04:16:19;;;;;;;23.75;17.50;;;512.50;2380.80;;;;;;5035296;28;20137;-77
2022/08/31 04:18:45;;;;;;;24.30;18.10;;;512.70;2380.80;;;;;;5068812;28;20088;-80
2022/08/31 04:21:19;;;;;;;20.95;18.00;;;512.80;2380.80;;;;;;5064619;28;20108;-77
2022/08/31 04:23:46;;;;;;;21.42;17.25;;;512.60;2380.80;;;;;;5030608;28;20026;-77
2022/08/31 04:26:36;;;;;;;21.80;17.58;;;512.60;2380.80;;;;;;5068583;28;20071;-79
2022/08/31 04:29:04;;;;;;;23.27;17.20;;;512.60;2380.80;;;;;;5031593;28;20055;-77
2022/08/31 04:31:29;;;;;;;19.73;17.58;;;512.70;2380.80;;;;;;5065714;28;20052;-80
2022/08/31 04:33:56;;;;;;;20.85;16.77;;;512.70;2380.80;;;;;;5031415;28;20467;-78
2022/08/31 04:36:25;;;;;;;23.55;19.30;;;512.80;2380.80;;;;;;5032249;28;20395;-78
2022/08/31 04:38:53;;;;;;;21.13;18.65;;;512.60;2380.80;;;;;;5068475;28;20028;-77
2022/08/31 04:41:22;;;;;;;22.38;19.08;;;512.50;2380.80;;;;;;5069058;28;20162;-76
2022/08/31 04:43:50;;;;;;;27.25;19.83;;;512.60;2380.80;;;;;;5068591;28;20107;-78
2022/08/31 04:46:18;;;;;;;24.65;20.98;;;512.80;2380.80;;;;;;5036856;28;20100;-79
2022/08/31 04:48:44;;;;;;;27.98;20.27;;;512.90;2380.80;;;;;;5034808;28;20032;-77
2022/08/31 04:51:14;;;;;;;27.88;20.35;;;512.80;2380.80;;;;;;5047867;28;20033;-78
2022/08/31 04:53:40;;;;;;;23.80;18.05;;;512.90;2380.80;;;;;;5038525;28;20091;-78
2022/08/31 04:56:15;;;;;;;22.20;17.83;;;512.90;2380.80;;;;;;5041945;28;20064;-77
2022/08/31 04:58:43;;;;;;;20.42;18.23;;;537.60;2406.40;;;;;;5035770;28;20517;-78
2022/08/31 05:01:16;;;;;;;25.98;17.98;;;537.70;2406.40;;;;;;5072944;28;20025;-77
2022/08/31 05:03:42;;;;;;;27.17;19.20;;;537.70;2406.40;;;;;;5037911;28;20038;-80
2022/08/31 05:06:16;;;;;;;26.52;19.17;;;537.80;2406.40;;;;;;5035920;28;20390;-77
2022/08/31 05:08:42;;;;;;;24.75;20.35;;;537.60;2406.40;;;;;;5039021;28;20050;-77
2022/08/31 05:11:13;;;;;;;25.75;19.27;;;512.90;2380.80;;;;;;5035420;28;20533;-76
2022/08/31 05:13:40;;;;;;;23.20;18.58;;;512.80;2380.80;;;;;;5048038;28;20033;-76
2022/08/31 05:16:09;;;;;;;25.65;18.33;;;512.80;2380.80;;;;;;5075820;28;20372;-78
2022/08/31 05:18:37;;;;;;;26.17;17.50;;;512.90;2380.80;;;;;;5067952;28;20037;-77
2022/08/31 05:21:15;;;;;;;30.15;19.60;;;537.60;2406.40;;;;;;5076070;28;20025;-78
2022/08/31 05:23:44;;;;;;;28.05;18.70;;;512.80;2380.80;;;;;;5054475;28;20037;-76
2022/08/31 05:26:19;;;;;;;27.00;18.30;;;512.80;2380.80;;;;;;5051222;28;20044;-78
2022/08/31 05:28:45;;;;;;;26.75;20.00;;;512.90;2380.80;;;;;;5068321;28;20025;-78
2022/08/31 05:31:12;;;;;;;25.10;19.95;;;512.60;2380.80;;;;;;5072005;28;20032;-78
2022/08/31 05:33:38;;;;;;;27.35;19.52;;;512.60;2380.80;;;;;;5070744;28;20040;-78
2022/08/31 05:36:04;;;;;;;24.60;18.17;;;512.60;2380.80;;;;;;5032646;28;20064;-77
2022/08/31 05:38:30;;;;;;;29.52;19.55;;;512.90;2380.80;;;;;;5034381;28;20064;-77
2022/08/31 05:40:59;;;;;;;26.77;19.13;;;537.60;2406.40;;;;;;5070084;28;20466;-77
2022/08/31 05:43:25;;;;;;;23.73;17.10;;;512.90;2380.80;;;;;;5065745;28;20040;-77
2022/08/31 05:45:51;;;;;;;27.27;17.30;;;537.60;2406.40;;;;;;5035833;28;20021;-76
2022/08/31 05:48:17;;;;;;;24.17;17.92;;;537.60;2406.40;;;;;;5034867;28;20116;-78
2022/08/31 05:50:43;;;;;;;25.98;18.02;;;537.90;2406.40;;;;;;5033513;28;20140;-77
2022/08/31 05:53:09;;;;;;;22.85;18.08;;;537.90;2406.40;;;;;;5066982;28;20048;-78
2022/08/31 05:55:35;;;;;;;19.83;16.65;;;538.00;2406.40;;;;;;5036172;28;20033;-78
2022/08/31 05:58:01;;;;;;;26.65;17.02;;;538.00;2406.40;;;;;;5038872;28;20461;-78
2022/08/31 06:00:27;;;;;;;24.55;18.27;;;538.00;2406.40;;;;;;5080497;28;20096;-77
2022/08/31 06:02:53;;;;;;;21.65;18.75;;;538.00;2406.40;;;;;;5052158;28;20025;-77
2022/08/31 06:05:19;;;;;;;27.63;19.60;;;538.00;2406.40;;;;;;5043345;28;20087;-77
2022/08/31 06:07:46;;;;;;;26.92;19.77;;;538.00;2406.40;;;;;;5066054;28;20033;-78
2022/08/31 06:10:13;;;;;;;22.40;19.80;;;538.00;2406.40;;;;;;5068323;28;20041;-77
2022/08/31 06:12:41;;;;;;;23.23;18.90;;;538.00;2406.40;;;;;;5034332;28;20041;-79
2022/08/31 06:15:09;;;;;;;20.80;18.60;;;538.20;2406.40;;;;;;5067010;28;20025;-77
2022/08/31 06:17:35;;;;;;;27.05;20.42;;;538.30;2406.40;;;;;;5034117;28;20098;-77
2022/08/31 06:20:04;;;;;;;24.48;19.95;;;538.30;2406.40;;;;;;5035203;28;20064;-77
2022/08/31 06:22:30;;;;;;;20.17;18.15;;;538.30;2406.40;;;;;;5066197;28;20044;-78
2022/08/31 06:24:56;;;;;;;23.40;20.25;;;538.50;2406.40;;;;;;5069284;28;20026;-77
2022/08/31 06:27:23;;;;;;;26.42;19.55;;;538.50;2406.40;;;;;;5066785;28;20029;-77
2022/08/31 06:29:49;;;;;;;26.70;19.15;;;563.20;2432.00;;;;;;5037172;28;20438;-77
2022/08/31 06:32:16;;;;;;;24.00;20.70;;;538.30;2406.40;;;;;;5032284;28;20467;-78
2022/08/31 06:34:42;;;;;;;21.42;19.13;;;563.30;2432.00;;;;;;5033993;28;20056;-77
2022/08/31 06:37:10;;;;;;;22.80;20.50;;;563.40;2432.00;;;;;;5035480;28;20041;-76
2022/08/31 06:39:36;;;;;;;23.10;18.92;;;563.50;2432.00;;;;;;5033233;28;20481;-77
2022/08/31 06:42:02;;;;;;;22.23;17.98;;;563.60;2432.00;;;;;;5034458;28;20041;-78
2022/08/31 06:44:28;;;;;;;24.75;19.48;;;563.60;2432.00;;;;;;5034457;28;20041;-77
2022/08/31 06:46:55;;;;;;;21.17;18.77;;;563.70;2432.00;;;;;;5034395;28;20033;-77
2022/08/31 06:49:21;;;;;;;24.38;20.45;;;563.80;2432.00;;;;;;5035362;28;20458;-77
2022/08/31 06:51:48;;;;;;;26.45;17.85;;;563.80;2432.00;;;;;;5035026;28;20459;-77
2022/08/31 06:54:16;;;;;;;25.15;19.27;;;563.90;2432.00;;;;;;5033037;28;22814;-78
2022/08/31 06:56:42;;;;;;;20.58;18.45;;;564.00;2432.00;;;;;;5033167;28;20459;-79
2022/08/31 06:59:08;;;;;;;22.40;18.50;;;564.10;2432.00;;;;;;5034270;28;20026;-80
2022/08/31 07:01:35;;;;;;;23.23;18.48;;;564.10;2432.00;;;;;;5071225;28;20040;-79
2022/08/31 07:04:04;;;;;;;23.00;18.23;;;588.80;2432.00;;;;;;5032074;28;20426;-77
2022/08/31 07:06:41;;;;;;;21.48;18.80;;;588.80;2432.00;;;;;;5063815;28;20053;-77
2022/08/31 07:09:10;;;;;;;22.23;18.23;;;588.90;2432.00;;;;;;5065952;28;20030;-77
2022/08/31 07:11:40;;;;;;;21.52;17.85;;;589.00;2432.00;;;;;;5069351;28;20034;-79
2022/08/31 07:14:08;;;;;;;23.52;18.65;;;589.00;2432.00;;;;;;5036058;28;20029;-80
2022/08/31 07:16:35;;;;;;;20.25;17.83;;;589.20;2432.00;;;;;;5031701;28;20462;-79
2022/08/31 07:19:02;;;;;;;19.35;17.35;;;589.30;2432.00;;;;;;5036014;28;20116;-80
2022/08/31 07:21:35;;;;;;;21.73;18.42;;;589.40;2432.00;;;;;;5036209;28;20124;-79
2022/08/31 07:24:04;;;;;;;20.75;18.33;;;589.50;2432.00;;;;;;5034718;28;20033;-80
2022/08/31 07:26:33;;;;;;;19.38;17.48;;;589.50;2432.00;;;;;;5033326;28;20355;-81
2022/08/31 07:29:00;;;;;;;24.13;18.35;;;589.60;2432.00;;;;;;5064857;28;20037;-80
2022/08/31 07:31:40;;;;;;;20.70;18.40;;;614.40;2432.00;;;;;;5065066;28;20442;-82
2022/08/31 07:34:11;;;;;;;20.52;18.52;;;614.60;2432.00;;;;;;5038813;28;20014;-81
2022/08/31 07:42:08;;;;;;;20.65;17.85;;;614.70;2432.00;;;;;;5033463;28;20475;-82
2022/08/31 07:42:11;;;;;;;19.23;17.23;;;614.80;2432.00;;;;;;5051525;28;20542;-80
2022/08/31 07:44:42;;;;;;;19.85;17.85;;;614.90;2432.00;;;;;;5035912;28;20063;-80
2022/08/31 07:47:12;;;;;;;20.70;17.65;;;614.90;2432.00;;;;;;5036930;28;20047;-80
2022/08/31 07:49:49;;;;;;;26.95;17.33;;;614.90;2432.00;;;;;;5068673;28;20160;-80
2022/08/31 07:52:22;;;;;;;19.20;16.77;;;615.10;2432.00;;;;;;5032965;28;20033;-81
2022/08/31 07:54:49;;;;;;;18.90;16.67;;;615.10;2432.00;;;;;;5069469;28;20037;-81
2022/08/31 07:57:16;;;;;;;20.15;16.92;;;615.10;2432.00;;;;;;5064419;28;20025;-81
2022/08/31 07:59:42;;;;;;;19.45;17.40;;;615.30;2432.00;;;;;;5030451;28;20478;-81
2022/08/31 08:02:08;;;;;;;19.13;17.30;;;640.00;2432.00;;;;;;5038335;28;20100;-82
2022/08/31 08:04:38;;;;;;;17.48;15.65;;;640.10;2432.00;;;;;;5033771;28;20057;-82
2022/08/31 08:07:07;;;;;;;17.60;15.85;;;640.20;2432.00;;;;;;5036440;28;20037;-82
2022/08/31 08:09:33;;;;;;;18.80;16.17;;;640.10;2432.00;;;;;;5030806;28;20434;-82
2022/08/31 08:12:05;;;;;;;24.13;17.98;;;640.20;2432.00;;;;;;5035843;28;20049;-83
2022/08/31 08:14:40;;;;;;;17.75;16.00;;;640.40;2432.00;;;;;;5036983;28;20029;-81
2022/08/31 08:17:06;;;;;;;20.05;18.13;;;640.60;2432.00;;;;;;5040155;28;20029;-78
2022/08/31 08:19:33;;;;;;;18.63;16.92;;;640.70;2432.00;;;;;;5037567;28;20025;-79
2022/08/31 08:22:02;;;;;;;19.38;16.02;;;640.90;2432.00;;;;;;5073356;28;20037;-80
2022/08/31 08:24:30;;;;;;;17.65;16.02;;;640.90;2432.00;;;;;;5073814;28;20029;-80
2022/08/31 08:26:56;;;;;;;18.10;16.30;;;665.70;2432.00;;;;;;5074241;28;20028;-80
2022/08/31 08:29:22;;;;;;;19.05;17.00;;;665.70;2432.00;;;;;;5039066;28;20544;-79
2022/08/31 08:31:53;;;;;;;17.33;15.63;;;665.80;2432.00;;;;;;5040420;28;20037;-80
2022/08/31 08:34:23;;;;;;;17.40;15.70;;;665.90;2432.00;;;;;;5073864;28;20030;-80
2022/08/31 08:36:50;;;;;;;19.60;16.08;;;666.10;2432.00;;;;;;5078217;28;20402;-80
2022/08/31 08:39:17;;;;;;;17.33;15.65;;;665.90;2432.00;;;;;;5079015;28;20029;-81
2022/08/31 08:41:45;;;;;;;17.90;16.08;;;666.20;2432.00;;;;;;5054182;28;20075;-81
2022/08/31 08:44:16;;;;;;;16.88;15.27;;;666.50;2432.00;;;;;;5054158;28;20029;-81
2022/08/31 08:46:54;;;;;;;18.60;16.35;;;691.20;2432.00;;;;;;5053226;28;20104;-80
2022/08/31 08:49:23;;;;;;;16.33;14.88;;;666.50;2432.00;;;;;;5049003;28;20053;-80
2022/08/31 08:51:58;;;;;;;17.88;16.15;;;691.20;2432.00;;;;;;5048675;28;20038;-81
2022/08/31 08:54:37;;;;;;;18.27;15.40;;;691.20;2432.00;;;;;;5051863;28;20017;-81
2022/08/31 08:57:26;;;;;;;20.42;18.42;;;666.10;2432.00;;;;;;5049398;28;20108;-80
2022/08/31 08:59:56;;;;;;;19.42;17.40;;;691.60;2432.00;;;;;;5049546;28;20028;-80
2022/08/31 09:02:35;;;;;;;21.45;18.40;;;691.50;2432.00;;;;;;5055319;28;20032;-81
2022/08/31 09:05:36;;;;;;;23.70;19.70;;;691.70;2432.00;;;;;;5049757;28;20518;-80
2022/08/31 09:08:22;;;;;;;17.50;15.35;;;691.70;2432.00;;;;;;5053771;28;20479;-80
2022/08/31 09:10:56;;;;;;;17.58;14.35;;;691.70;2432.00;;;;;;5045469;28;20025;-80
2022/08/31 09:13:40;;;;;;;17.08;14.55;;;691.70;2432.00;;;;;;5045879;28;20033;-79
2022/08/31 09:16:20;;;;;;;17.05;15.02;;;691.60;2432.00;;;;;;5054263;28;20029;-80
2022/08/31 09:19:00;;;;;;;15.55;14.00;;;691.80;2432.00;;;;;;5038801;28;20386;-78
2022/08/31 09:21:33;;;;;;;15.68;14.07;;;692.00;2432.00;;;;;;5039200;28;20478;-79
2022/08/31 09:24:06;;;;;;;15.27;13.68;;;716.90;2432.00;;;;;;5040495;28;20033;-80
2022/08/31 09:27:18;;;;;;;16.58;14.80;;;717.10;2432.00;;;;;;5039517;28;20022;-80
2022/08/31 09:29:54;;;;;;;15.60;14.05;;;717.20;2432.00;;;;;;5039095;28;20025;-80
2022/08/31 09:32:30;;;;;;;14.10;12.70;;;717.10;2432.00;;;;;;5041788;28;20037;-79
2022/08/31 09:35:00;;;;;;;15.70;14.18;;;716.80;2432.00;;;;;;5048810;28;20029;-80
2022/08/31 09:37:44;;;;;;;15.30;12.77;;;692.10;2432.00;;;;;;5039523;28;20107;-80
2022/08/31 09:40:18;;;;;;;15.00;13.55;;;691.80;2432.00;;;;;;5033892;28;20087;-80
2022/08/31 09:42:58;;;;;;;16.52;13.48;;;691.90;2432.00;;;;;;5038131;28;20386;-78
2022/08/31 09:45:31;;;;;;;16.33;12.45;;;692.10;2432.00;;;;;;5034147;28;20121;-78
2022/08/31 09:48:00;;;;;;;14.82;13.30;;;691.90;2432.00;;;;;;5067541;28;20026;-79
2022/08/31 09:50:35;;;;;;;16.98;12.80;;;691.80;2432.00;;;;;;5038197;28;20030;-78
2022/08/31 09:56:12;;;;;;;15.88;13.98;;;692.00;2432.00;;;;;;5039238;28;20039;-79
2022/08/31 09:58:40;;;;;;;17.50;15.68;;;716.80;2432.00;;;;;;5037660;28;20025;-77
2022/08/31 10:01:20;;;;;;;16.35;14.75;;;717.00;2432.00;;;;;;5051724;28;20063;-79
2022/08/31 10:03:47;;;;;;;15.60;13.60;;;717.20;2432.00;;;;;;5034264;28;20025;-78
2022/08/31 10:06:25;;;;;;;14.52;12.82;;;717.50;2432.00;;;;;;5037584;28;20025;-79
2022/08/31 10:08:58;;;;;;;16.27;13.63;;;717.60;2432.00;;;;;;5046692;28;20438;-77
2022/08/31 10:11:29;;;;;;;17.55;15.80;;;742.50;2432.00;;;;;;5036817;28;20029;-76
2022/08/31 10:14:06;;;;;;;18.08;16.15;;;742.50;2432.00;;;;;;5039392;28;20859;-79
2022/08/31 10:16:46;;;;;;;15.50;13.90;;;742.60;2432.00;;;;;;5034225;28;20455;-78
2022/08/31 10:19:29;;;;;;;14.93;13.52;;;742.70;2432.00;;;;;;5042560;28;20083;-79
2022/08/31 10:22:03;;;;;;;16.20;14.60;;;742.90;2432.00;;;;;;5048756;28;20075;-81
2022/08/31 10:24:45;;;;;;;21.45;13.05;;;743.30;2432.00;;;;;;5043381;28;20025;-79
2022/08/31 10:27:21;;;;;;;37.92;25.13;;;768.10;2432.00;;;;;;5034707;28;20057;-80
2022/08/31 10:30:04;;;;;;;17.08;13.23;;;768.10;2432.00;;;;;;5036865;28;20063;-80
2022/08/31 10:32:33;;;;;;;17.17;13.23;;;768.10;2432.00;;;;;;5037868;28;20037;-79
2022/08/31 10:35:35;;;;;;;19.73;14.38;;;768.10;2432.00;;;;;;5039985;28;20441;-80
2022/08/31 10:38:25;;;;;;;15.55;12.10;;;768.30;2432.00;;;;;;5070951;28;20051;-80
2022/08/31 10:41:01;;;;;;;16.45;14.65;;;768.30;2432.00;;;;;;5048228;28;20386;-80
2022/08/31 10:43:43;;;;;;;14.45;12.60;;;768.50;2432.00;;;;;;5043967;28;20033;-81
2022/08/31 10:46:09;;;;;;;17.45;11.85;;;768.10;2432.00;;;;;;5042049;28;20124;-81
2022/08/31 10:48:37;;;;;;;13.82;12.43;;;768.30;2432.00;;;;;;5066764;28;20550;-81
2022/08/31 10:51:18;;;;;;;14.93;12.75;;;768.50;2432.00;;;;;;5068028;28;20417;-82
2022/08/31 10:53:56;;;;;;;15.15;12.80;;;768.60;2432.00;;;;;;5036903;28;20076;-81
2022/08/31 10:56:40;;;;;;;16.45;12.13;;;768.60;2432.00;;;;;;5036671;28;20025;-81
2022/08/31 10:59:32;;;;;;;21.42;16.15;;;793.60;2406.40;;;;;;5041398;28;20421;-81
2022/08/31 11:02:32;;;;;;;13.25;11.80;;;794.10;2432.00;;;;;;5051858;28;20079;-80
2022/08/31 11:04:58;;;;;;;15.00;13.30;;;;;;;;;;5042290;28;20483;-80
2022/08/31 11:07:47;;;;;;;14.88;12.77;;;794.20;2355.20;;;;;;5036833;28;20436;-81
2022/08/31 11:10:24;;;;;;;13.52;10.48;;;794.20;2380.80;;;;;;5036414;28;20025;-81
2022/08/31 11:12:59;;;;;;;13.07;11.13;;;794.30;2380.80;;;;;;5039918;28;20072;-81
2022/08/31 11:15:27;;;;;;;13.18;11.82;;;794.10;2406.40;;;;;;5066041;28;20029;-81
2022/08/31 11:18:21;;;;;;;18.27;16.48;;;794.00;2432.00;;;;;;5038551;28;20025;-79
2022/08/31 11:21:14;;;;;;;14.65;13.13;;;793.80;2432.00;;;;;;5037371;28;20059;-79
2022/08/31 11:24:11;;;;;;;17.42;14.65;;;768.60;2406.40;;;;;;5035059;28;20113;-81
2022/08/31 11:26:51;;;;;;;16.60;15.00;;;768.50;2432.00;;;;;;5016722;28;20090;-80
2022/08/31 11:29:42;;;;;;;15.57;12.23;;;768.40;2432.00;;;;;;5037556;28;20025;-79
2022/08/31 11:32:20;;;;;;;13.88;11.32;;;768.50;2380.80;;;;;;5042086;28;20032;-80
2022/08/31 11:34:50;;;;;;;17.75;15.95;;;793.80;2406.40;;;;;;5040882;28;20025;-82
2022/08/31 11:38:03;;;;;;;15.32;13.73;;;794.20;2380.80;;;;;;5036898;28;20047;-81
2022/08/31 11:40:40;;;;;;;11.98;10.77;;;819.30;2329.60;;;;;;5031753;28;20043;-81
2022/08/31 11:43:32;;;;;;;13.70;10.70;;;794.10;2304.00;;;;;;5034230;28;20040;-81
2022/08/31 11:46:23;;;;;;;13.90;12.60;;;794.20;2329.60;;;;;;5036403;28;20061;-82
2022/08/31 11:48:52;;;;;;;13.85;11.63;;;819.50;2329.60;;;;;;5036465;28;20029;-82
2022/08/31 11:51:32;;;;;;;12.45;10.50;;;819.50;2329.60;;;;;;5053618;28;20070;-82
2022/08/31 11:54:00;;;;;;;11.65;10.55;;;819.30;2304.00;;;;;;5040667;28;20041;-82
2022/08/31 11:56:37;;;;;;;12.63;11.32;;;819.60;2278.40;;;;;;5036432;28;20018;-82
2022/08/31 11:59:30;;;;;;;13.02;9.77;;;819.30;2278.40;;;;;;5034045;28;20028;-80
2022/08/31 12:02:01;;;;;;;15.68;11.27;;;820.10;2304.00;;;;;;5032217;28;20032;-81
2022/08/31 12:04:45;;;;;;;17.10;14.00;;;819.80;2278.40;;;;;;5067200;28;20025;-81
2022/08/31 12:07:23;;;;;;;10.70;8.98;;;844.90;2304.00;;;;;;5030184;28;20764;-81
2022/08/31 12:10:04;;;;;;;11.50;10.23;;;820.10;2227.20;;;;;;5034617;28;20475;-81
2022/08/31 12:12:54;;;;;;;13.70;12.30;;;819.80;2278.40;;;;;;5030745;28;20034;-79
2022/08/31 12:15:38;;;;;;;13.88;12.43;;;819.40;2278.40;;;;;;5033570;28;20033;-80
2022/08/31 12:18:30;;;;;;;10.68;9.63;;;819.40;2304.00;;;;;;5034409;28;20029;-81
2022/08/31 12:24:04;;;;;;;11.85;10.32;;;820.10;2201.60;;;;;;5034577;28;20059;-78
2022/08/31 12:26:39;;;;;;;10.32;9.25;;;844.80;2252.80;;;;;;5045133;28;20115;-80
2022/08/31 12:29:28;;;;;;;11.85;9.55;;;819.80;2201.60;;;;;;5035385;28;20057;-79
2022/08/31 12:32:09;;;;;;;11.85;9.55;;;820.10;2201.60;;;;;;5035351;28;20033;-78